createdAt,value
2019-02-23T00:01:57.256Z,29.40
2019-02-23T00:05:02.232Z,28.70
2019-02-23T00:08:07.305Z,28.40
2019-02-23T00:11:12.321Z,28.80
2019-02-23T00:14:17.387Z,28.80
2019-02-23T00:17:22.361Z,29.30
2019-02-23T00:20:28.794Z,29.90
2019-02-23T00:23:33.822Z,30.10
2019-02-23T00:26:38.796Z,30.70
2019-02-23T00:29:43.871Z,30.80
2019-02-23T00:32:48.877Z,30.70
2019-02-23T00:35:53.794Z,30.90
2019-02-23T00:38:58.879Z,29.90
2019-02-23T00:42:04.153Z,30.10
2019-02-23T00:45:09.125Z,29.80
2019-02-23T00:48:14.377Z,30.00
2019-02-23T00:51:19.360Z,29.90
2019-02-23T00:54:24.449Z,29.80
2019-02-23T00:57:30.397Z,29.70
2019-02-23T01:00:35.395Z,29.70
2019-02-23T01:03:40.967Z,29.30
2019-02-23T01:06:46.264Z,29.30
2019-02-23T01:09:51.203Z,29.00
2019-02-23T01:12:56.344Z,28.20
2019-02-23T01:16:01.369Z,28.30
2019-02-23T01:19:06.657Z,27.90
2019-02-23T01:22:11.546Z,27.70
2019-02-23T01:25:16.517Z,27.20
2019-02-23T01:28:21.553Z,27.20
2019-02-23T01:31:29.208Z,27.00
2019-02-23T01:34:34.283Z,27.10
2019-02-23T01:37:39.214Z,27.30
2019-02-23T01:40:44.133Z,27.10
2019-02-23T01:43:49.208Z,27.40
2019-02-23T01:46:54.126Z,27.50
2019-02-23T01:49:59.400Z,27.50
2019-02-23T01:53:04.335Z,27.50
2019-02-23T01:56:19.703Z,27.40
2019-02-23T01:59:24.882Z,27.50
2019-02-23T02:02:29.903Z,27.50
2019-02-23T02:05:34.907Z,27.50
2019-02-23T02:08:40.384Z,27.40
2019-02-23T02:11:55.015Z,27.10
2019-02-23T02:15:00.206Z,26.90
2019-02-23T02:18:05.380Z,26.50
2019-02-23T02:21:10.393Z,26.70
2019-02-23T02:24:15.382Z,26.60
2019-02-23T02:27:20.400Z,26.60
2019-02-23T02:30:25.352Z,26.80
2019-02-23T02:33:30.238Z,26.80
2019-02-23T02:36:35.221Z,27.10
2019-02-23T02:39:40.313Z,27.10
2019-02-23T02:42:45.502Z,27.20
2019-02-23T02:45:50.435Z,26.40
2019-02-23T02:48:55.213Z,26.10
2019-02-23T02:52:00.024Z,25.90
2019-02-23T02:55:05.144Z,25.90
2019-02-23T02:58:10.392Z,25.80
2019-02-23T03:01:15.326Z,25.70
2019-02-23T03:04:20.319Z,25.80
2019-02-23T03:07:25.347Z,26.10
2019-02-23T03:10:30.355Z,26.10
2019-02-23T03:13:35.186Z,26.40
2019-02-23T03:16:40.189Z,26.40
2019-02-23T03:19:45.328Z,25.90
2019-02-23T03:22:53.514Z,25.80
2019-02-23T03:25:58.405Z,25.50
2019-02-23T03:29:03.458Z,26.10
2019-02-23T03:32:15.670Z,25.70
2019-02-23T03:35:20.686Z,25.70
2019-02-23T03:38:25.606Z,25.60
2019-02-23T03:41:30.916Z,25.60
2019-02-23T03:44:35.784Z,25.80
2019-02-23T03:47:40.878Z,25.90
2019-02-23T03:50:49.041Z,25.70
2019-02-23T03:53:52.290Z,25.40
2019-02-23T03:56:57.383Z,25.40
2019-02-23T04:00:02.656Z,25.10
2019-02-23T04:03:07.601Z,24.90
2019-02-23T04:06:12.755Z,24.50
2019-02-23T04:09:17.572Z,24.50
2019-02-23T04:12:22.517Z,24.40
2019-02-23T04:15:27.461Z,24.40
2019-02-23T04:18:33.237Z,24.50
2019-02-23T04:21:38.206Z,24.50
2019-02-23T04:24:43.361Z,24.70
2019-02-23T04:27:48.284Z,26.30
2019-02-23T04:30:53.454Z,26.80
2019-02-23T04:33:58.438Z,27.70
2019-02-23T04:37:03.475Z,27.80
2019-02-23T04:40:08.559Z,28.10
2019-02-23T04:43:14.024Z,28.50
2019-02-23T04:46:18.938Z,29.10
2019-02-23T04:49:26.015Z,29.90
2019-02-23T04:52:30.661Z,30.60
2019-02-23T04:55:35.535Z,31.20
2019-02-23T04:58:40.449Z,31.90
2019-02-23T05:01:45.420Z,32.60
2019-02-23T05:04:50.442Z,33.30
2019-02-23T05:07:55.561Z,33.60
2019-02-23T05:11:00.391Z,33.90
2019-02-23T05:14:05.383Z,34.20
2019-02-23T05:17:10.574Z,34.80
2019-02-23T05:20:15.441Z,35.40
2019-02-23T05:23:20.395Z,36.20
2019-02-23T05:26:25.639Z,36.50
2019-02-23T05:29:30.728Z,36.40
2019-02-23T05:32:35.678Z,37.00
2019-02-23T05:35:40.714Z,36.20
2019-02-23T05:38:51.457Z,36.00
2019-02-23T05:41:56.611Z,35.80
2019-02-23T05:45:01.711Z,35.60
2019-02-23T05:48:06.875Z,35.70
2019-02-23T05:51:11.869Z,35.90
2019-02-23T05:54:16.682Z,36.00
2019-02-23T05:57:21.649Z,35.10
2019-02-23T06:00:26.738Z,35.70
2019-02-23T06:03:31.982Z,36.10
2019-02-23T06:06:36.900Z,35.60
2019-02-23T06:09:42.079Z,35.70
2019-02-23T06:12:46.978Z,35.60
2019-02-23T06:15:52.123Z,35.50
2019-02-23T06:18:57.153Z,36.00
2019-02-23T06:22:02.449Z,36.10
2019-02-23T06:25:08.349Z,36.10
2019-02-23T06:28:13.241Z,36.30
2019-02-23T06:31:18.192Z,35.80
2019-02-23T06:34:23.221Z,35.00
2019-02-23T06:37:28.314Z,35.20
2019-02-23T06:40:33.299Z,35.40
2019-02-23T06:43:38.406Z,35.10
2019-02-23T06:46:43.357Z,35.00
2019-02-23T06:49:48.493Z,35.10
2019-02-23T06:52:55.002Z,35.10
2019-02-23T06:56:00.223Z,35.50
2019-02-23T06:59:05.334Z,35.30
2019-02-23T07:02:10.207Z,34.70
2019-02-23T07:05:15.109Z,34.40
2019-02-23T07:08:20.224Z,34.20
2019-02-23T07:11:25.504Z,34.90
2019-02-23T07:14:30.538Z,34.40
2019-02-23T07:17:35.555Z,34.00
2019-02-23T07:20:44.125Z,33.90
2019-02-23T07:23:47.055Z,34.00
2019-02-23T07:26:52.062Z,33.60
2019-02-23T07:29:57.142Z,32.90
2019-02-23T07:33:02.120Z,31.40
2019-02-23T07:36:07.242Z,29.50
2019-02-23T07:39:12.272Z,26.90
2019-02-23T07:42:17.252Z,30.10
2019-02-23T07:45:22.316Z,31.80
2019-02-23T07:48:27.603Z,31.80
2019-02-23T07:51:32.499Z,29.90
2019-02-23T07:54:37.407Z,28.20
2019-02-23T07:57:42.442Z,26.60
2019-02-23T08:00:47.476Z,26.00
2019-02-23T08:03:52.663Z,26.00
2019-02-23T08:06:57.954Z,26.20
2019-02-23T08:10:02.911Z,25.50
2019-02-23T08:13:07.969Z,26.80
2019-02-23T08:16:12.953Z,31.30
2019-02-23T08:19:17.907Z,33.20
2019-02-23T08:22:23.220Z,34.80
2019-02-23T08:25:28.383Z,34.90
2019-02-23T08:28:33.305Z,34.10
2019-02-23T08:31:38.184Z,34.00
2019-02-23T08:34:43.172Z,31.80
2019-02-23T08:37:54.717Z,31.60
2019-02-23T08:40:59.619Z,31.40
2019-02-23T08:44:04.763Z,29.70
2019-02-23T08:47:09.730Z,25.00
2019-02-23T08:50:14.662Z,21.20
2019-02-23T08:53:19.482Z,18.30
2019-02-23T08:56:24.505Z,16.10
2019-02-23T08:59:29.424Z,14.60
2019-02-23T09:02:34.608Z,15.00
2019-02-23T09:05:39.631Z,13.50
2019-02-23T09:08:44.904Z,11.10
2019-02-23T09:11:50.102Z,10.60
2019-02-23T09:14:55.389Z,8.60
2019-02-23T09:18:00.308Z,8.50
2019-02-23T09:21:05.430Z,7.50
2019-02-23T09:24:10.378Z,7.00
2019-02-23T09:27:15.521Z,6.60
2019-02-23T09:30:20.865Z,6.20
2019-02-23T09:33:25.828Z,5.60
2019-02-23T09:36:30.913Z,6.10
2019-02-23T09:39:35.989Z,5.80
2019-02-23T09:42:41.225Z,5.30
2019-02-23T09:45:46.260Z,5.10
2019-02-23T09:48:51.242Z,4.90
2019-02-23T09:51:56.235Z,4.90
2019-02-23T09:55:01.285Z,4.80
2019-02-23T09:58:06.517Z,4.30
2019-02-23T10:01:16.271Z,5.00
2019-02-23T10:04:21.400Z,5.10
2019-02-23T10:07:26.641Z,5.00
2019-02-23T10:10:31.659Z,5.00
2019-02-23T10:13:36.731Z,5.90
2019-02-23T10:16:41.668Z,6.40
2019-02-23T10:19:46.809Z,6.10
2019-02-23T10:22:51.757Z,6.10
2019-02-23T10:25:56.512Z,5.40
2019-02-23T10:29:01.261Z,5.10
2019-02-23T10:32:06.091Z,5.00
2019-02-23T10:35:12.048Z,4.70
2019-02-23T10:38:17.246Z,4.50
2019-02-23T10:41:22.120Z,4.10
2019-02-23T10:44:27.075Z,4.10
2019-02-23T10:47:32.041Z,3.50
2019-02-23T10:50:37.055Z,3.90
2019-02-23T10:53:42.223Z,3.80
2019-02-23T10:56:47.493Z,3.10
2019-02-23T10:59:52.613Z,3.40
2019-02-23T11:02:57.481Z,3.40
2019-02-23T11:06:03.088Z,3.90
2019-02-23T11:09:10.744Z,3.70
2019-02-23T11:12:15.666Z,3.20
2019-02-23T11:15:21.222Z,3.50
2019-02-23T11:18:26.268Z,3.80
2019-02-23T11:21:31.611Z,3.50
2019-02-23T11:24:36.527Z,3.40
2019-02-23T11:27:41.727Z,3.50
2019-02-23T11:30:46.900Z,3.90
2019-02-23T11:33:51.945Z,3.60
2019-02-23T11:36:56.963Z,3.50
2019-02-23T11:40:01.986Z,3.60
2019-02-23T11:43:06.976Z,3.20
2019-02-23T11:46:12.124Z,3.60
2019-02-23T11:49:17.440Z,3.80
2019-02-23T11:52:22.540Z,3.80
2019-02-23T11:55:27.564Z,4.10
2019-02-23T11:58:32.680Z,4.80
2019-02-23T12:01:37.781Z,4.50
2019-02-23T12:04:42.693Z,4.30
2019-02-23T12:07:47.707Z,4.10
2019-02-23T12:10:52.822Z,4.10
2019-02-23T12:13:58.022Z,3.90
2019-02-23T12:17:02.904Z,3.30
2019-02-23T12:20:08.249Z,3.50
2019-02-23T12:23:13.548Z,3.30
2019-02-23T12:26:18.706Z,3.40
2019-02-23T12:29:23.828Z,3.60
2019-02-23T12:32:28.796Z,3.60
2019-02-23T12:35:33.794Z,3.80
2019-02-23T12:38:38.896Z,3.80
2019-02-23T12:41:47.025Z,4.00
2019-02-23T12:44:52.446Z,4.40
2019-02-23T12:47:57.418Z,4.50
2019-02-23T12:51:04.765Z,5.10
2019-02-23T12:54:16.495Z,4.50
2019-02-23T12:57:16.169Z,4.20
2019-02-23T13:00:21.253Z,4.40
2019-02-23T13:03:26.191Z,4.50
2019-02-23T13:06:31.348Z,5.20
2019-02-23T13:09:40.227Z,4.50
2019-02-23T13:13:13.287Z,4.50
2019-02-23T13:16:42.637Z,4.80
2019-02-23T13:20:17.724Z,4.60
2019-02-23T13:23:58.704Z,4.20
2019-02-23T13:27:21.209Z,4.30
2019-02-23T13:31:06.748Z,4.60
2019-02-23T13:34:46.284Z,4.50
2019-02-23T13:38:25.812Z,5.40
2019-02-23T13:41:56.625Z,6.20
2019-02-23T13:45:38.527Z,7.20
2019-02-23T13:49:37.680Z,7.80
2019-02-23T13:53:05.949Z,8.10
2019-02-23T13:56:48.501Z,7.50
2019-02-23T14:00:18.170Z,7.30
2019-02-23T14:04:03.926Z,7.60
2019-02-23T14:07:55.710Z,8.20
2019-02-23T14:11:43.701Z,9.30
2019-02-23T14:15:34.059Z,9.40
2019-02-23T14:18:49.115Z,9.40
2019-02-23T14:22:23.181Z,9.70
2019-02-23T14:26:06.759Z,10.10
2019-02-23T14:29:36.233Z,10.30
2019-02-23T14:32:57.914Z,10.20
2019-02-23T14:36:33.607Z,10.60
2019-02-23T14:40:01.588Z,10.50
2019-02-23T14:43:58.315Z,10.80
2019-02-23T14:47:21.166Z,11.80
2019-02-23T14:51:17.949Z,12.50
2019-02-23T14:55:00.891Z,13.10
2019-02-23T14:58:56.216Z,13.10
2019-02-23T15:02:44.873Z,13.20
2019-02-23T15:06:20.805Z,13.30
2019-02-23T15:10:21.432Z,13.40
2019-02-23T15:14:14.783Z,13.20
2019-02-23T15:18:14.763Z,13.50
2019-02-23T15:21:35.680Z,13.90
2019-02-23T15:25:20.638Z,15.00
2019-02-23T15:29:15.800Z,15.40
2019-02-23T15:33:07.220Z,15.50
2019-02-23T15:36:39.791Z,15.80
2019-02-23T15:40:16.599Z,16.10
2019-02-23T15:44:09.122Z,16.10
2019-02-23T15:47:28.643Z,16.20
2019-02-23T15:50:33.979Z,16.10
2019-02-23T15:53:39.159Z,16.50
2019-02-23T15:56:44.270Z,16.50
2019-02-23T15:59:49.249Z,16.50
2019-02-23T16:02:54.410Z,16.40
2019-02-23T16:05:59.741Z,16.50
2019-02-23T16:09:04.893Z,16.60
2019-02-23T16:12:09.877Z,17.00
2019-02-23T16:15:14.913Z,17.20
2019-02-23T16:18:20.071Z,17.30
2019-02-23T16:21:29.644Z,17.50
2019-02-23T16:24:35.974Z,17.80
2019-02-23T16:27:41.079Z,18.00
2019-02-23T16:30:46.328Z,18.50
2019-02-23T16:33:51.348Z,18.60
2019-02-23T16:36:56.699Z,18.70
2019-02-23T16:40:01.861Z,19.10
2019-02-23T16:43:06.906Z,19.20
2019-02-23T16:46:11.840Z,19.20
2019-02-23T16:49:16.956Z,19.50
2019-02-23T16:52:21.927Z,19.80
2019-02-23T16:55:27.266Z,19.90
2019-02-23T16:58:32.491Z,20.10
2019-02-23T17:01:37.481Z,20.50
2019-02-23T17:04:52.993Z,20.80
2019-02-23T17:07:49.109Z,21.30
2019-02-23T17:10:54.107Z,21.50
2019-02-23T17:13:59.214Z,21.70
2019-02-23T17:17:04.407Z,21.70
2019-02-23T17:20:09.634Z,21.90
2019-02-23T17:23:33.495Z,22.00
2019-02-23T17:26:38.581Z,22.00
2019-02-23T17:29:43.896Z,22.50
2019-02-23T17:32:48.978Z,22.40
2019-02-23T17:35:53.919Z,22.30
2019-02-23T17:38:59.068Z,23.20
2019-02-23T17:42:07.473Z,22.80
2019-02-23T17:45:12.544Z,22.80
2019-02-23T17:48:17.591Z,23.10
2019-02-23T17:51:22.738Z,23.20
2019-02-23T17:54:27.714Z,23.80
2019-02-23T17:57:51.453Z,23.40
2019-02-23T18:00:57.360Z,23.30
2019-02-23T18:04:02.292Z,23.50
2019-02-23T18:07:07.315Z,23.60
2019-02-23T18:10:12.406Z,23.70
2019-02-23T18:13:17.503Z,23.90
2019-02-23T18:16:22.624Z,24.00
2019-02-23T18:19:27.596Z,24.30
2019-02-23T18:22:32.668Z,24.50
2019-02-23T18:25:37.710Z,24.60
2019-02-23T18:28:42.890Z,24.80
2019-02-23T18:31:48.117Z,25.10
2019-02-23T18:34:53.767Z,25.20
2019-02-23T18:37:58.845Z,25.60
2019-02-23T18:41:03.856Z,25.70
2019-02-23T18:44:09.395Z,25.60
2019-02-23T18:47:14.354Z,25.60
2019-02-23T18:50:22.624Z,26.00
2019-02-23T18:53:27.612Z,26.10
2019-02-23T18:56:32.686Z,26.40
2019-02-23T18:59:37.719Z,26.50
2019-02-23T19:02:43.114Z,26.70
2019-02-23T19:05:50.088Z,26.70
2019-02-23T19:08:54.840Z,27.20
2019-02-23T19:11:59.865Z,27.40
2019-02-23T19:15:05.188Z,27.40
2019-02-23T19:18:10.383Z,27.30
2019-02-23T19:21:15.295Z,27.50
2019-02-23T19:24:20.428Z,27.70
2019-02-23T19:27:25.409Z,27.80
2019-02-23T19:30:30.738Z,28.00
2019-02-23T19:33:35.721Z,27.80
2019-02-23T19:36:42.995Z,27.80
2019-02-23T19:39:48.168Z,27.80
2019-02-23T19:42:53.133Z,28.10
2019-02-23T19:45:58.084Z,28.60
2019-02-23T19:49:03.039Z,28.90
2019-02-23T19:52:09.618Z,29.00
2019-02-23T19:55:16.135Z,29.10
2019-02-23T19:58:21.135Z,29.20
2019-02-23T20:01:26.410Z,29.50
2019-02-23T20:04:31.444Z,29.50
2019-02-23T20:07:36.519Z,29.60
2019-02-23T20:10:42.941Z,29.60
2019-02-23T20:13:47.953Z,29.60
2019-02-23T20:16:53.320Z,30.00
2019-02-23T20:19:58.428Z,30.20
2019-02-23T20:23:03.592Z,30.40
2019-02-23T20:26:29.818Z,30.50
2019-02-23T20:29:34.702Z,30.50
2019-02-23T20:32:39.726Z,31.10
2019-02-23T20:35:45.077Z,31.20
2019-02-23T20:38:50.177Z,31.20
2019-02-23T20:41:58.112Z,31.20
2019-02-23T20:45:03.291Z,31.50
2019-02-23T20:48:08.349Z,32.20
2019-02-23T20:51:13.606Z,32.10
2019-02-23T20:54:18.968Z,32.30
2019-02-23T20:57:24.135Z,32.30
2019-02-23T21:00:29.364Z,32.80
2019-02-23T21:03:34.371Z,33.10
2019-02-23T21:06:40.166Z,33.30
2019-02-23T21:09:45.276Z,33.20
2019-02-23T21:12:50.391Z,33.20
2019-02-23T21:15:55.278Z,33.20
2019-02-23T21:19:00.386Z,33.20
2019-02-23T21:22:05.493Z,32.80
2019-02-23T21:25:10.966Z,32.00
2019-02-23T22:50:18.686Z,37.00
2019-02-23T22:53:23.618Z,36.90
2019-02-23T22:56:28.797Z,37.00
2019-02-23T22:59:33.674Z,37.10
2019-02-23T23:02:38.662Z,37.20
2019-02-23T23:05:45.038Z,37.50
2019-02-23T23:08:50.380Z,37.80
2019-02-23T23:11:55.423Z,37.80
2019-02-23T23:15:00.707Z,37.40
2019-02-23T23:18:05.618Z,37.20
2019-02-23T23:21:10.750Z,37.20
2019-02-23T23:24:15.885Z,37.40
2019-02-23T23:27:20.772Z,37.80
2019-02-23T23:30:25.786Z,37.80
2019-02-23T23:33:31.154Z,37.80
2019-02-23T23:36:36.281Z,37.70
2019-02-23T23:39:41.561Z,37.80
2019-02-23T23:42:46.551Z,37.80
2019-02-23T23:45:51.680Z,38.00
2019-02-23T23:48:56.606Z,38.10
2019-02-23T23:52:01.550Z,38.60
2019-02-23T23:55:06.495Z,38.80
2019-02-23T23:58:11.375Z,39.10
